Sunshine Coast Airport Weather Forecast (YBSU – MCY)

METAR

METAR YBSU 210800Z AUTO 14006KT 9999 // NCD 15/05 Q1018 RMK RF00.0/000.0

TAF

TAF YBSU 210343Z 2106/2118 13010KT CAVOK FM211000 20006KT CAVOK RMK T 18 13 11 10 Q 1017 1019 1021 1021

QNH 

1018

Temperature & Dew Point

14° DP5